Time;durP1;ratioP1;P1;durP2;ratioP2;P2;SDS_P1;SDS_P2;PMS_P1;PMS_P2;Temp;Humidity;BMP_temperature;BMP_pressure;BME280_temperature;BME280_humidity;BME280_pressure;Samples;Min_cycle;Max_cycle;Signal;HPM_P1;HPM_P2
2021/06/01 00:02:23;;;;;;;2.00;1.87;;;;;;;19.44;72.87;97744.94;5018847;28;20236;-67
2021/06/01 00:04:50;;;;;;;1.73;1.53;;;;;;;19.42;72.80;97742.31;5009331;28;20265;-68
2021/06/01 00:07:17;;;;;;;1.87;1.77;;;;;;;19.36;72.48;97738.66;4999331;28;20289;-68
2021/06/01 00:09:43;;;;;;;1.90;1.80;;;;;;;19.00;72.95;97674.28;5009019;28;20237;-67
2021/06/01 00:12:10;;;;;;;1.80;1.70;;;;;;;19.40;72.87;97741.41;4991688;28;20711;-68
2021/06/01 00:14:36;;;;;;;1.80;1.70;;;;;;;19.56;72.59;97766.69;5012323;28;20206;-67
2021/06/01 00:17:03;;;;;;;1.70;1.60;;;;;;;19.52;73.16;97762.28;5002839;28;20289;-69
2021/06/01 00:19:30;;;;;;;1.90;1.80;;;;;;;19.55;73.20;97769.19;4993919;28;20292;-67
2021/06/01 00:21:56;;;;;;;1.80;1.70;;;;;;;19.40;73.49;97751.59;5002188;28;20259;-67
2021/06/01 00:24:23;;;;;;;1.70;1.60;;;;;;;19.39;73.26;97743.88;4999139;28;20286;-68
2021/06/01 00:26:50;;;;;;;1.80;1.70;;;;;;;19.04;73.23;97682.94;5016485;28;20271;-68
2021/06/01 00:29:16;;;;;;;1.80;1.70;;;;;;;19.39;73.16;97742.19;5005299;28;20232;-68
2021/06/01 00:31:43;;;;;;;1.80;1.70;;;;;;;19.55;73.23;97767.53;4985425;28;20774;-67
2021/06/01 00:34:10;;;;;;;1.67;1.57;;;;;;;19.41;73.15;97743.13;4994665;28;20263;-67
2021/06/01 00:36:36;;;;;;;2.23;1.80;;;;;;;17.61;73.15;97433.38;5009170;28;20267;-68
2021/06/01 00:39:04;;;;;;;2.60;1.70;;;;;;;19.49;73.28;97754.53;5015959;28;20206;-67
2021/06/01 00:41:31;;;;;;;1.77;1.67;;;;;;;19.55;73.17;97767.53;4998101;28;20198;-68
2021/06/01 00:43:58;;;;;;;1.93;1.83;;;;;;;19.55;73.42;97764.09;5013022;28;20292;-68
2021/06/01 00:46:25;;;;;;;1.73;1.63;;;;;;;18.87;73.03;97641.47;4998168;28;20248;-68
2021/06/01 00:48:51;;;;;;;1.63;1.53;;;;;;;19.56;73.35;97765.81;5012303;28;20201;-67
2021/06/01 00:51:18;;;;;;;1.77;1.67;;;;;;;18.05;72.92;97521.72;5004711;28;20317;-67
2021/06/01 00:53:45;;;;;;;1.87;1.77;;;;;;;19.50;73.33;97756.25;4998770;28;20237;-68
2021/06/01 00:56:12;;;;;;;1.80;1.70;;;;;;;19.43;73.22;97743.19;5011902;28;20652;-67
2021/06/01 00:58:38;;;;;;;1.60;1.50;;;;;;;19.56;73.20;97768.38;5008734;28;20614;-68
2021/06/01 01:03:35;;;;;;;1.90;1.80;;;;;;;19.40;73.06;97731.22;4995898;28;20216;-68
2021/06/01 01:06:09;;;;;;;1.50;1.40;;;;;;;19.42;73.00;97733.81;4986679;28;20256;-70
2021/06/01 01:11:38;;;;;;;1.80;1.70;;;;;;;19.55;73.46;97756.44;5007405;28;20340;-68
2021/06/01 01:14:30;;;;;;;1.80;1.70;;;;;;;19.53;73.52;97753.81;5009309;28;20201;-68
2021/06/01 01:17:02;;;;;;;1.93;1.80;;;;;;;19.52;73.52;97754.66;5007774;28;20225;-67
2021/06/01 01:19:40;;;;;;;1.70;1.60;;;;;;;19.52;73.51;97752.09;5004451;28;20719;-68
2021/06/01 01:22:06;;;;;;;1.87;1.77;;;;;;;19.39;73.48;97726.06;5007810;28;20200;-67
2021/06/01 01:24:45;;;;;;;1.73;1.63;;;;;;;19.14;73.54;97713.06;5003193;28;20288;-69
2021/06/01 01:27:21;;;;;;;1.80;1.70;;;;;;;19.54;73.43;97754.72;4992905;28;20232;-68
2021/06/01 01:29:48;;;;;;;1.97;1.77;;;;;;;19.54;73.57;97757.25;5026085;28;20244;-67
2021/06/01 01:32:35;;;;;;;1.70;1.60;;;;;;;19.27;73.40;97703.47;5022176;28;20316;-68
2021/06/01 01:35:02;;;;;;;1.83;1.60;;;;;;;19.37;73.42;97722.56;5007425;28;20300;-67
2021/06/01 01:37:31;;;;;;;1.63;1.53;;;;;;;19.04;73.42;97663.41;5009789;28;20233;-67
2021/06/01 01:39:59;;;;;;;2.07;1.70;;;;;;;19.22;73.43;97694.72;4999235;28;20233;-67
2021/06/01 01:42:40;;;;;;;1.70;1.60;;;;;;;19.09;73.52;97673.78;4971576;28;20225;-70
2021/06/01 01:45:16;;;;;;;1.53;1.43;;;;;;;19.54;73.49;97755.56;4990118;28;20272;-67
2021/06/01 01:50:13;;;;;;;1.70;1.60;;;;;;;19.39;73.36;97724.34;4995051;28;20248;-69
2021/06/01 01:52:40;;;;;;;1.80;1.70;;;;;;;19.37;73.35;97715.78;5011134;28;20221;-67
2021/06/01 01:55:08;;;;;;;1.53;1.43;;;;;;;19.28;73.33;97699.25;5007454;28;20224;-67
2021/06/01 01:57:40;;;;;;;1.60;1.50;;;;;;;18.84;73.22;97628.63;4985427;28;20205;-67
2021/06/01 02:00:11;;;;;;;1.80;1.70;;;;;;;19.35;73.38;97713.97;4987790;28;20401;-70
2021/06/01 02:02:38;;;;;;;1.67;1.57;;;;;;;18.88;73.50;97638.13;4987653;28;20637;-67
2021/06/01 02:05:06;;;;;;;1.73;1.63;;;;;;;18.91;73.63;97640.78;4979056;28;20312;-68
2021/06/01 02:07:32;;;;;;;1.77;1.60;;;;;;;18.91;73.51;97645.88;5006320;28;20272;-68
2021/06/01 02:09:59;;;;;;;2.07;1.87;;;;;;;19.36;73.53;97719.13;5009755;28;20297;-68
2021/06/01 02:12:26;;;;;;;2.03;1.77;;;;;;;19.52;73.72;97749.56;4992497;28;20313;-68
2021/06/01 02:14:53;;;;;;;1.90;1.80;;;;;;;19.37;73.59;97722.56;5027064;28;20666;-68
2021/06/01 02:17:20;;;;;;;1.70;1.60;;;;;;;19.42;73.47;97728.72;4989922;28;20739;-68
2021/06/01 02:19:47;;;;;;;1.80;1.70;;;;;;;19.53;73.60;97747.84;5007516;28;20285;-68
2021/06/01 02:23:46;;;;;;;2.00;1.60;;;;;;;19.21;73.48;97689.56;4994424;28;20297;-69
2021/06/01 02:25:22;;;;;;;1.57;1.47;;;;;;;19.54;73.63;97741.97;5009639;28;20739;-68
2021/06/01 02:28:16;;;;;;;3.00;1.70;;;;;;;19.54;73.52;97741.97;5006156;28;20297;-67
2021/06/01 02:30:55;;;;;;;1.90;1.70;;;;;;;19.54;73.66;97739.41;4982580;28;20202;-69
2021/06/01 02:33:23;;;;;;;1.60;1.50;;;;;;;19.54;73.54;97742.81;5005815;28;20280;-67
2021/06/01 02:35:50;;;;;;;1.90;1.80;;;;;;;19.03;73.50;97643.84;5005082;28;20222;-68
2021/06/01 02:38:17;;;;;;;1.80;1.70;;;;;;;19.47;73.50;97717.91;4985481;28;20635;-67
2021/06/01 02:40:44;;;;;;;1.63;1.53;;;;;;;19.53;73.68;97730.88;4991284;28;20651;-68
2021/06/01 02:43:12;;;;;;;1.60;1.50;;;;;;;19.54;73.65;97732.63;4992176;28;20289;-68
2021/06/01 02:45:39;;;;;;;1.70;1.60;;;;;;;19.41;73.47;97709.13;4987569;28;20776;-68
2021/06/01 02:48:06;;;;;;;1.80;1.70;;;;;;;19.52;73.39;97731.72;4986019;28;20285;-68
2021/06/01 02:50:33;;;;;;;1.60;1.50;;;;;;;19.30;73.46;97690.84;5004597;28;20228;-67
2021/06/01 02:53:00;;;;;;;1.87;1.70;;;;;;;19.52;73.45;97735.91;5007648;28;20304;-68
2021/06/01 02:55:26;;;;;;;2.13;1.93;;;;;;;19.00;74.01;97648.81;4994101;28;20671;-68
2021/06/01 02:57:54;;;;;;;1.70;1.60;;;;;;;18.91;73.67;97630.59;4993278;28;20259;-68
2021/06/01 03:00:22;;;;;;;1.70;1.60;;;;;;;18.93;73.70;97636.63;5003401;28;20730;-67
2021/06/01 03:02:49;;;;;;;1.70;1.60;;;;;;;19.53;73.74;97745.28;5002334;28;20232;-67
2021/06/01 03:05:17;;;;;;;1.80;1.70;;;;;;;19.36;73.66;97719.13;5023910;28;20271;-67
2021/06/01 03:07:51;;;;;;;1.60;1.50;;;;;;;19.24;73.73;97695.66;4983486;28;20289;-68
2021/06/01 03:10:18;;;;;;;1.97;1.87;;;;;;;19.28;73.74;97697.59;5009665;28;20237;-67
2021/06/01 03:12:53;;;;;;;1.53;1.43;;;;;;;19.53;73.75;97745.28;4993705;28;20308;-69
2021/06/01 03:15:22;;;;;;;2.10;1.90;;;;;;;19.39;74.02;97715.84;5003855;28;20317;-68
2021/06/01 03:17:49;;;;;;;1.90;1.80;;;;;;;19.53;73.75;97732.56;5000797;28;20202;-67
2021/06/01 03:20:15;;;;;;;1.80;1.70;;;;;;;19.53;73.77;97741.06;5015602;28;20284;-67
2021/06/01 03:22:42;;;;;;;1.80;1.70;;;;;;;18.01;73.73;97472.41;5021769;28;20213;-68
2021/06/01 03:25:09;;;;;;;2.77;1.53;;;;;;;19.54;73.69;97740.25;5014213;28;20299;-68
2021/06/01 03:27:36;;;;;;;1.67;1.57;;;;;;;19.54;73.71;97736.88;4981694;28;20661;-67
2021/06/01 03:30:05;;;;;;;1.90;1.80;;;;;;;19.49;73.72;97725.59;4996189;28;20240;-68
2021/06/01 03:32:31;;;;;;;1.73;1.60;;;;;;;19.38;73.77;97706.44;5011663;28;20900;-68
2021/06/01 03:34:58;;;;;;;1.60;1.50;;;;;;;19.47;73.49;97724.66;5000720;28;20221;-65
2021/06/01 03:37:25;;;;;;;1.83;1.70;;;;;;;19.52;73.72;97736.81;4981724;28;20755;-67
2021/06/01 03:39:52;;;;;;;1.90;1.80;;;;;;;19.53;73.89;97742.75;5022219;28;20236;-68
2021/06/01 03:42:19;;;;;;;1.93;1.83;;;;;;;19.50;73.98;97735.84;5016274;28;20256;-67
2021/06/01 03:44:46;;;;;;;2.53;2.13;;;;;;;19.53;74.62;97742.75;4994817;28;20241;-67
2021/06/01 03:47:12;;;;;;;8.53;1.97;;;;;;;19.16;74.49;97678.34;5015376;28;20645;-68
2021/06/01 03:49:39;;;;;;;1.80;1.70;;;;;;;19.52;74.20;97746.13;5015864;28;20735;-67
2021/06/01 03:52:07;;;;;;;2.10;1.90;;;;;;;19.53;74.16;97741.06;4983315;28;20301;-67
2021/06/01 03:54:35;;;;;;;1.90;1.80;;;;;;;19.39;74.15;97716.69;4996211;28;20257;-67
2021/06/01 03:57:01;;;;;;;2.20;2.00;;;;;;;19.45;73.95;97729.69;5008407;28;20550;-67
2021/06/01 03:59:28;;;;;;;2.73;2.13;;;;;;;19.54;74.22;97747.91;5009880;28;20202;-68
2021/06/01 04:01:55;;;;;;;1.97;1.87;;;;;;;19.41;73.90;97716.75;4994311;28;20765;-67
2021/06/01 04:04:21;;;;;;;1.90;1.80;;;;;;;19.55;74.11;97747.13;5002996;28;20206;-67
2021/06/01 04:06:48;;;;;;;2.00;1.77;;;;;;;19.41;74.20;97714.22;5025274;28;20679;-67
2021/06/01 04:09:14;;;;;;;3.43;1.90;;;;;;;18.94;74.02;97633.28;4997304;28;20296;-68
2021/06/01 04:11:41;;;;;;;1.90;1.80;;;;;;;19.49;74.07;97733.25;4972833;28;20237;-67
2021/06/01 04:14:08;;;;;;;2.00;1.87;;;;;;;19.56;74.40;97745.41;5017941;28;20201;-68
2021/06/01 04:16:34;;;;;;;2.10;2.00;;;;;;;19.57;74.08;97745.47;5020977;28;20795;-67
2021/06/01 04:19:01;;;;;;;2.07;1.90;;;;;;;19.51;73.95;97732.50;5004272;28;20652;-67
2021/06/01 04:21:27;;;;;;;2.20;2.00;;;;;;;19.58;74.09;97743.81;5022456;28;20296;-68
2021/06/01 04:23:54;;;;;;;2.10;1.90;;;;;;;19.58;73.88;97744.69;5022778;28;20288;-68
2021/06/01 04:26:21;;;;;;;2.70;1.90;;;;;;;19.45;73.78;97723.75;4996533;28;20657;-69
2021/06/01 04:28:47;;;;;;;1.97;1.87;;;;;;;19.57;73.77;97737.84;5024016;28;20284;-67
2021/06/01 04:31:14;;;;;;;1.90;1.80;;;;;;;19.43;73.64;97717.72;5005874;28;20289;-70
2021/06/01 04:33:41;;;;;;;2.00;1.90;;;;;;;19.60;74.09;97739.66;5006200;28;20241;-68
2021/06/01 04:36:07;;;;;;;2.13;1.93;;;;;;;19.34;73.49;97699.50;5006413;28;20331;-69
2021/06/01 04:38:34;;;;;;;2.07;1.80;;;;;;;19.44;73.81;97716.88;5006438;28;20280;-67
2021/06/01 04:41:00;;;;;;;2.23;2.03;;;;;;;19.56;73.32;97735.22;4996965;28;20703;-69
2021/06/01 04:43:27;;;;;;;1.90;1.80;;;;;;;19.61;73.65;97746.50;5019353;28;20952;-68
2021/06/01 04:45:53;;;;;;;2.20;2.00;;;;;;;19.03;73.34;97654.03;5019080;28;20291;-68
2021/06/01 04:48:20;;;;;;;1.70;1.60;;;;;;;19.61;73.56;97749.03;5027569;28;20236;-68
2021/06/01 04:50:47;;;;;;;2.80;1.93;;;;;;;17.99;73.40;97476.56;5005387;28;20238;-68
2021/06/01 04:53:18;;;;;;;2.30;1.90;;;;;;;19.46;73.59;97721.25;5023384;28;20236;-68
2021/06/01 04:55:45;;;;;;;1.70;1.60;;;;;;;19.61;73.49;97743.94;5009343;28;20253;-67
2021/06/01 04:58:11;;;;;;;2.20;2.00;;;;;;;19.61;73.72;97747.38;5007368;28;20709;-67
2021/06/01 05:00:38;;;;;;;2.00;1.90;;;;;;;19.62;73.46;97763.50;4985339;28;20309;-67
2021/06/01 05:03:04;;;;;;;2.10;2.00;;;;;;;19.60;73.51;97739.66;5022087;28;20690;-69
2021/06/01 05:05:31;;;;;;;1.83;1.73;;;;;;;19.47;73.47;97714.47;5018118;28;20332;-68
2021/06/01 05:07:57;;;;;;;2.00;1.90;;;;;;;19.48;73.64;97714.53;4975955;28;20285;-68
2021/06/01 05:10:24;;;;;;;2.00;1.90;;;;;;;19.63;73.69;97742.34;4990915;28;20233;-69
2021/06/01 05:12:51;;;;;;;3.03;1.87;;;;;;;19.63;73.48;97739.78;5024164;28;20276;-69
2021/06/01 05:15:19;;;;;;;1.97;1.87;;;;;;;19.64;73.43;97744.94;4985021;28;20254;-68
2021/06/01 05:17:45;;;;;;;8.40;2.30;;;;;;;19.49;73.35;97720.50;5005700;28;20901;-68
2021/06/01 05:20:12;;;;;;;2.13;1.90;;;;;;;19.64;73.38;97744.06;5010020;28;20276;-68
2021/06/01 05:22:39;;;;;;;1.70;1.60;;;;;;;19.57;73.39;97731.88;4999946;28;20284;-68
2021/06/01 05:25:06;;;;;;;1.93;1.83;;;;;;;19.49;73.11;97720.50;5008820;28;20235;-66
2021/06/01 05:27:33;;;;;;;1.87;1.77;;;;;;;19.64;73.23;97750.03;5002692;28;20285;-68
2021/06/01 05:30:03;;;;;;;2.10;1.80;;;;;;;19.65;72.91;97736.47;5027180;28;20671;-67
2021/06/01 05:35:21;;;;;;;2.23;2.03;;;;;;;19.63;73.19;97735.53;5012566;28;20596;-67
2021/06/01 05:37:47;;;;;;;1.83;1.73;;;;;;;19.32;73.01;97683.25;5003075;28;20280;-67
2021/06/01 05:40:14;;;;;;;1.90;1.80;;;;;;;19.65;73.29;97739.03;4985602;28;20748;-69
2021/06/01 05:42:41;;;;;;;4.27;1.97;;;;;;;19.65;73.16;97736.47;5004651;28;20284;-68
2021/06/01 05:45:08;;;;;;;2.00;1.80;;;;;;;19.60;73.18;97727.75;4996771;28;20260;-69
2021/06/01 05:47:35;;;;;;;2.00;1.90;;;;;;;19.05;73.01;97629.50;5030279;28;20208;-68
2021/06/01 05:50:02;;;;;;;1.70;1.60;;;;;;;19.03;73.01;97625.13;4980597;28;20521;-68
2021/06/01 05:52:29;;;;;;;2.00;1.90;;;;;;;19.34;73.07;97680.00;5028950;28;20279;-68
2021/06/01 05:54:55;;;;;;;2.10;2.00;;;;;;;17.87;72.77;97426.84;5004907;28;20773;-68
2021/06/01 05:57:22;;;;;;;1.90;1.80;;;;;;;19.67;73.33;97739.09;5025995;28;20355;-69
2021/06/01 05:59:49;;;;;;;1.80;1.70;;;;;;;19.67;73.20;97741.63;5021969;28;20284;-67
2021/06/01 06:02:15;;;;;;;1.70;1.60;;;;;;;19.66;73.07;97738.19;5020624;28;20288;-70
2021/06/01 06:04:42;;;;;;;2.43;1.90;;;;;;;19.51;72.90;97709.53;5022023;28;20202;-67
2021/06/01 06:07:09;;;;;;;2.03;1.90;;;;;;;19.67;72.45;97739.09;5024341;28;20242;-68
2021/06/01 06:09:35;;;;;;;2.20;2.00;;;;;;;19.60;73.09;97730.31;5002467;28;20201;-67
2021/06/01 06:12:02;;;;;;;1.93;1.77;;;;;;;19.67;72.98;97726.34;5026739;28;20629;-68
2021/06/01 06:14:29;;;;;;;1.97;1.87;;;;;;;19.34;72.83;97681.66;5005427;28;20226;-66
2021/06/01 06:16:56;;;;;;;2.07;1.90;;;;;;;19.67;73.03;97739.97;4993306;28;20202;-68
2021/06/01 06:19:23;;;;;;;2.13;1.90;;;;;;;19.68;72.77;97738.25;5001233;28;20979;-68
2021/06/01 06:21:49;;;;;;;2.13;1.93;;;;;;;19.17;72.75;97650.38;5023366;28;21084;-69
2021/06/01 06:24:16;;;;;;;1.87;1.77;;;;;;;19.61;72.62;97726.97;5003849;28;20193;-67
2021/06/01 06:26:42;;;;;;;1.90;1.80;;;;;;;19.67;72.73;97737.41;5026046;28;20320;-68
2021/06/01 06:29:09;;;;;;;2.03;1.93;;;;;;;19.68;72.99;97735.72;4988458;28;20300;-68
2021/06/01 06:31:37;;;;;;;2.13;1.83;;;;;;;19.68;72.43;97735.72;5022129;28;20202;-66
2021/06/01 06:34:03;;;;;;;2.33;2.13;;;;;;;19.69;nan;97737.47;5001534;28;20218;-68
2021/06/01 06:36:30;;;;;;;2.27;1.97;;;;;;;19.55;72.69;97708.00;4998534;28;20237;-68
2021/06/01 06:38:56;;;;;;;2.00;1.90;;;;;;;19.65;72.89;97725.38;4999683;28;20293;-68
2021/06/01 06:41:23;;;;;;;2.10;1.90;;;;;;;19.13;72.83;97623.00;4975772;28;20237;-68
2021/06/01 06:43:52;;;;;;;2.20;2.00;;;;;;;19.57;72.89;97698.75;4998475;28;20285;-68
2021/06/01 06:46:37;;;;;;;2.07;1.97;;;;;;;19.72;72.82;97728.25;5021904;28;20261;-67
2021/06/01 06:49:03;;;;;;;2.30;1.97;;;;;;;19.58;72.64;97697.94;5016469;28;20201;-68
2021/06/01 06:51:30;;;;;;;2.17;2.07;;;;;;;19.57;72.57;97702.16;5011371;28;20708;-69
2021/06/01 06:53:57;;;;;;;2.20;2.03;;;;;;;19.16;72.65;97627.38;5011619;28;20786;-68
2021/06/01 06:56:25;;;;;;;2.30;2.10;;;;;;;19.12;72.74;97613.63;5010233;28;20228;-68
2021/06/01 06:58:52;;;;;;;2.13;2.00;;;;;;;19.74;72.72;97736.84;5006990;28;20272;-68
2021/06/01 07:01:19;;;;;;;2.27;1.90;;;;;;;19.74;72.56;97733.41;5023560;28;20649;-68
2021/06/01 07:03:46;;;;;;;2.43;2.07;;;;;;;19.24;72.51;97646.38;5026372;28;20268;-68
2021/06/01 07:06:12;;;;;;;3.83;2.10;;;;;;;19.72;72.44;97727.41;5011163;28;20301;-67
2021/06/01 07:08:39;;;;;;;1.90;1.80;;;;;;;19.62;72.46;97710.84;5019873;28;20661;-67
2021/06/01 07:11:06;;;;;;;2.00;1.90;;;;;;;19.74;72.26;97726.63;5009489;28;20229;-67
2021/06/01 07:13:55;;;;;;;2.30;2.10;;;;;;;19.58;72.33;97698.81;5007597;28;20308;-68
2021/06/01 07:16:22;;;;;;;2.00;1.90;;;;;;;19.66;72.49;97709.31;5023206;28;20280;-68
2021/06/01 07:18:49;;;;;;;2.23;2.03;;;;;;;19.75;72.34;97717.31;5008643;28;20577;-68
2021/06/01 07:21:16;;;;;;;3.17;2.10;;;;;;;19.74;71.88;97721.53;5026213;28;20585;-68
2021/06/01 07:23:42;;;;;;;2.20;1.97;;;;;;;19.15;72.25;97615.44;5026562;28;20261;-68
2021/06/01 07:26:10;;;;;;;2.83;2.20;;;;;;;19.75;72.42;97723.25;4989818;28;20272;-67
2021/06/01 07:28:37;;;;;;;2.40;2.20;;;;;;;19.77;72.32;97718.22;4999572;28;20235;-67
2021/06/01 07:31:04;;;;;;;2.20;2.00;;;;;;;19.76;72.38;97716.50;5018547;28;20238;-68
2021/06/01 07:33:31;;;;;;;2.10;2.00;;;;;;;19.18;72.37;97615.56;5002147;28;21151;-67
2021/06/01 07:35:58;;;;;;;1.93;1.83;;;;;;;19.17;72.41;97607.06;4992462;28;20229;-67
2021/06/01 07:38:24;;;;;;;3.27;2.00;;;;;;;19.59;72.31;97689.47;5001614;28;20872;-67
2021/06/01 07:40:51;;;;;;;2.33;2.10;;;;;;;19.64;72.40;97688.84;5018289;28;20719;-67
2021/06/01 07:43:18;;;;;;;2.10;1.90;;;;;;;19.78;72.37;97713.19;5010902;28;20277;-68
2021/06/01 07:45:44;;;;;;;2.13;1.90;;;;;;;19.79;72.35;97711.50;5001876;28;20268;-67
2021/06/01 07:48:11;;;;;;;2.20;2.00;;;;;;;19.75;72.08;97705.41;4981915;28;20700;-70
2021/06/01 07:50:38;;;;;;;2.07;1.83;;;;;;;19.66;72.32;97688.91;4982609;28;20284;-67
2021/06/01 07:53:05;;;;;;;2.30;2.10;;;;;;;19.73;72.31;97711.28;5005129;28;20322;-68
2021/06/01 07:55:32;;;;;;;2.43;2.23;;;;;;;19.79;72.21;97716.63;5027677;28;20261;-70
2021/06/01 07:57:59;;;;;;;2.00;1.90;;;;;;;19.65;72.20;97688.03;5005800;28;20299;-66
2021/06/01 08:00:27;;;;;;;2.67;1.90;;;;;;;19.73;72.20;97701.97;4998291;28;20286;-68
2021/06/01 08:02:54;;;;;;;2.53;2.30;;;;;;;19.80;72.08;97708.16;5003636;28;20249;-69
2021/06/01 08:05:22;;;;;;;1.90;1.80;;;;;;;19.39;71.84;97639.41;4997828;28;20279;-67
2021/06/01 08:07:49;;;;;;;2.10;2.00;;;;;;;19.78;71.84;97702.13;4996243;28;20202;-68
2021/06/01 08:10:17;;;;;;;2.10;2.00;;;;;;;19.63;71.74;97681.13;5005222;28;20759;-67
2021/06/01 08:12:44;;;;;;;2.47;2.27;;;;;;;19.60;72.02;97674.22;4987255;28;20285;-67
2021/06/01 08:15:12;;;;;;;2.30;2.10;;;;;;;19.61;71.93;97673.44;5005596;28;20614;-67
2021/06/01 08:17:39;;;;;;;2.43;2.23;;;;;;;19.72;72.30;97697.66;5025542;28;20237;-69
2021/06/01 08:20:15;;;;;;;3.80;2.10;;;;;;;19.78;72.04;97708.09;5002709;28;20212;-68
2021/06/01 08:22:42;;;;;;;2.10;2.00;;;;;;;19.00;71.86;97574.06;5020011;28;20219;-68
2021/06/01 08:25:11;;;;;;;2.37;2.20;;;;;;;19.47;71.93;97641.44;5001520;28;20373;-68
2021/06/01 08:27:38;;;;;;;2.90;2.20;;;;;;;19.78;71.91;97700.44;4998040;28;20634;-69
2021/06/01 08:30:06;;;;;;;2.97;2.30;;;;;;;19.36;71.87;97624.84;5017886;28;20695;-67
2021/06/01 08:32:33;;;;;;;2.00;1.90;;;;;;;19.78;71.80;97702.13;5003072;28;20276;-67
2021/06/01 08:34:59;;;;;;;1.80;1.70;;;;;;;19.63;71.86;97665.84;4982183;28;20677;-67
2021/06/01 08:37:26;;;;;;;2.00;1.80;;;;;;;19.78;71.66;97690.22;4996823;28;20198;-69
2021/06/01 08:39:53;;;;;;;1.90;1.80;;;;;;;19.63;71.86;97665.84;5014818;28;20300;-68
2021/06/01 08:42:19;;;;;;;1.97;1.87;;;;;;;19.73;72.44;97676.47;4980405;28;20643;-67
2021/06/01 08:44:50;;;;;;;3.00;1.70;;;;;;;19.62;71.60;97652.22;4995884;28;20229;-68
2021/06/01 08:47:19;;;;;;;2.60;2.13;;;;;;;19.76;71.73;97681.69;4990676;28;20234;-68
2021/06/01 08:49:47;;;;;;;2.33;2.13;;;;;;;19.77;71.70;97685.06;5018986;28;20602;-68
2021/06/01 08:52:15;;;;;;;2.13;2.03;;;;;;;19.16;71.63;97563.69;5021155;28;20201;-66
2021/06/01 08:54:44;;;;;;;1.90;1.80;;;;;;;19.77;71.65;97679.97;4986807;28;20257;-68
2021/06/01 08:57:11;;;;;;;1.90;1.80;;;;;;;19.69;71.78;97671.19;5020179;28;20213;-70
2021/06/01 08:59:40;;;;;;;2.30;2.10;;;;;;;19.24;71.62;97592.88;5005619;28;20296;-68
2021/06/01 09:02:07;;;;;;;2.00;1.90;;;;;;;19.73;71.66;97671.38;4993026;28;20197;-68
2021/06/01 09:04:53;;;;;;;2.03;1.93;;;;;;;19.67;71.54;97663.47;5002337;28;20224;-69
2021/06/01 09:07:27;;;;;;;2.07;1.87;;;;;;;19.74;71.73;97674.75;4989577;28;20206;-70
2021/06/01 09:10:20;;;;;;;2.03;1.93;;;;;;;19.67;71.84;97657.50;5002786;28;20645;-69
2021/06/01 09:13:40;;;;;;;2.20;2.10;;;;;;;19.74;71.82;97664.56;5006564;28;21046;-70
2021/06/01 09:21:34;;;;;;;3.93;2.10;;;;;;;19.17;71.96;97579.03;5008444;28;20209;-67
2021/06/01 09:24:03;;;;;;;2.30;2.10;;;;;;;19.74;71.79;97677.31;4970392;28;20290;-68
2021/06/01 09:26:56;;;;;;;2.00;1.90;;;;;;;19.15;71.82;97573.00;5025709;28;20257;-67
2021/06/01 09:29:23;;;;;;;1.90;1.80;;;;;;;19.60;71.81;97645.34;5002385;28;20238;-66
2021/06/01 09:32:04;;;;;;;3.57;2.00;;;;;;;19.60;72.02;97642.78;4994232;28;20237;-66
2021/06/01 09:34:43;;;;;;;2.10;2.00;;;;;;;19.73;71.91;97671.38;5001530;28;20228;-71
2021/06/01 09:37:21;;;;;;;2.30;2.10;;;;;;;19.73;71.90;97666.25;4997126;28;20289;-67
2021/06/01 09:40:16;;;;;;;2.27;2.07;;;;;;;19.73;71.84;97660.28;5003530;28;20685;-67
2021/06/01 09:42:45;;;;;;;2.30;2.10;;;;;;;19.13;71.85;97548.28;5022877;28;20596;-68
2021/06/01 09:45:13;;;;;;;2.20;2.10;;;;;;;19.58;71.93;97627.44;5006970;28;20653;-69
2021/06/01 09:47:47;;;;;;;2.00;1.90;;;;;;;19.73;71.92;97650.06;5000502;28;20839;-67
2021/06/01 09:50:55;;;;;;;1.90;1.80;;;;;;;19.72;71.79;97653.44;5002935;28;20198;-67
2021/06/01 09:53:27;;;;;;;2.20;2.07;;;;;;;19.71;71.87;97651.69;4989065;28;20225;-67
2021/06/01 09:55:54;;;;;;;2.10;2.00;;;;;;;19.15;71.84;97541.56;4990714;28;20635;-67
2021/06/01 09:58:28;;;;;;;2.30;2.10;;;;;;;19.55;71.65;97619.66;5009962;28;20292;-70
2021/06/01 10:00:55;;;;;;;1.90;1.80;;;;;;;18.89;71.70;97493.84;5003410;28;20233;-68
2021/06/01 10:03:24;;;;;;;2.07;1.87;;;;;;;19.57;72.10;97612.06;5002033;28;20202;-67
2021/06/01 10:05:54;;;;;;;2.27;1.93;;;;;;;19.26;71.84;97559.00;5008437;28;20300;-68
2021/06/01 10:08:21;;;;;;;1.83;1.73;;;;;;;19.71;71.75;97638.94;4999123;28;20240;-67
2021/06/01 10:10:50;;;;;;;2.00;1.80;;;;;;;19.10;71.74;97536.28;5007068;28;20332;-66
2021/06/01 10:13:17;;;;;;;2.13;2.03;;;;;;;19.21;71.70;97546.88;4999066;28;20308;-67
2021/06/01 10:15:43;;;;;;;1.93;1.80;;;;;;;19.73;71.73;97629.69;4997073;28;20313;-66
2021/06/01 10:18:10;;;;;;;3.33;2.13;;;;;;;19.26;72.19;97574.31;5017064;28;20293;-68
2021/06/01 10:20:38;;;;;;;2.43;2.23;;;;;;;19.12;71.92;97516.84;4983654;28;20202;-68
2021/06/01 10:23:06;;;;;;;2.07;1.97;;;;;;;19.59;72.00;97596.00;5000711;28;20201;-68
2021/06/01 10:25:32;;;;;;;2.20;2.00;;;;;;;19.70;71.83;97627.91;5010629;28;20226;-68
2021/06/01 10:28:04;;;;;;;2.10;1.90;;;;;;;19.73;71.88;97611.84;5021200;28;20305;-69
2021/06/01 10:30:32;;;;;;;4.33;2.10;;;;;;;19.57;71.85;97582.34;4986585;28;20207;-68
2021/06/01 10:33:00;;;;;;;1.97;1.87;;;;;;;19.59;71.95;97587.50;4992282;28;20208;-67
2021/06/01 10:35:36;;;;;;;3.27;2.10;;;;;;;19.74;71.67;97618.66;4999669;28;20313;-68
2021/06/01 10:52:31;;;;;;;2.30;2.10;;;;;;;19.66;71.96;97577.56;5010524;28;20234;-68
2021/06/01 10:54:59;;;;;;;2.37;2.17;;;;;;;19.74;71.75;97591.50;5021005;28;20272;-67
2021/06/01 10:57:55;;;;;;;2.70;2.20;;;;;;;19.75;71.81;97582.16;5007326;28;20292;-67
2021/06/01 11:03:14;;;;;;;2.27;2.07;;;;;;;19.35;71.74;97523.72;5008963;28;20229;-67
2021/06/01 11:05:57;;;;;;;2.40;2.20;;;;;;;19.74;71.58;97594.03;4987052;28;20256;-68
2021/06/01 11:08:34;;;;;;;2.03;1.93;;;;;;;19.29;71.76;97508.22;5018911;28;20656;-68
2021/06/01 11:11:22;;;;;;;2.00;1.90;;;;;;;19.74;71.39;97578.75;5007687;28;20427;-68
2021/06/01 11:13:50;;;;;;;2.20;2.00;;;;;;;19.75;71.59;97577.06;5020071;28;20202;-68
2021/06/01 11:16:16;;;;;;;2.40;2.20;;;;;;;19.74;71.55;97576.19;5008137;28;20245;-68
2021/06/01 11:18:49;;;;;;;2.30;2.07;;;;;;;19.60;71.74;97551.00;4998953;28;20291;-67
2021/06/01 11:21:41;;;;;;;2.10;2.00;;;;;;;19.06;71.60;97458.03;4988884;28;20586;-66
2021/06/01 11:35:03;;;;;;;3.57;2.20;;;;;;;19.74;71.54;97565.09;5029846;28;20625;-67
2021/06/01 11:37:37;;;;;;;2.97;1.97;;;;;;;19.43;71.40;97508.72;5046753;28;20248;-67
2021/06/01 11:43:11;;;;;;;6.50;2.27;;;;;;;19.74;69.99;97552.38;5046148;28;20296;-67
2021/06/01 11:45:41;;;;;;;4.83;2.50;;;;;;;19.75;69.91;97549.03;5045672;28;20304;-68
2021/06/01 11:51:15;;;;;;;3.43;2.30;;;;;;;19.67;70.10;97535.13;4995663;28;20232;-69
2021/06/01 11:54:01;;;;;;;7.57;2.40;;;;;;;19.80;70.42;97547.47;5041519;28;20270;-68
2021/06/01 11:57:04;;;;;;;4.37;2.47;;;;;;;19.81;70.28;97537.34;5043702;28;20240;-68
2021/06/01 12:05:13;;;;;;;2.40;2.20;;;;;;;19.86;70.17;97524.75;5035089;28;20289;-68
2021/06/01 12:18:47;;;;;;;4.67;2.57;;;;;;;19.82;70.37;97525.47;5039649;28;20844;-68
2021/06/01 12:21:19;;;;;;;2.50;2.30;;;;;;;19.82;70.40;97520.38;5042217;28;20579;-67
2021/06/01 12:24:08;;;;;;;2.57;2.37;;;;;;;18.59;70.53;97330.59;5045228;28;20240;-68
2021/06/01 12:32:15;;;;;;;2.20;2.03;;;;;;;19.86;70.55;97512.00;5029477;28;20258;-68
2021/06/01 12:45:49;;;;;;;2.60;2.27;;;;;;;19.88;70.40;97498.50;5040732;28;20636;-67
2021/06/01 13:13:13;;;;;;;2.73;2.50;;;;;;;19.38;70.08;97419.38;5042803;28;20222;-71
2021/06/01 13:20:14;;;;;;;2.53;2.23;;;;;;;19.91;70.29;97451.84;5047367;28;20251;-67
2021/06/01 13:39:13;;;;;;;3.33;2.27;;;;;;;19.11;69.51;97341.91;5047647;28;20868;-66
2021/06/01 13:47:14;;;;;;;2.50;2.30;;;;;;;19.84;69.89;97458.41;5045560;28;20244;-69
2021/06/01 14:00:21;;;;;;;4.10;2.50;;;;;;;19.92;69.94;97439.13;5046166;28;20720;-68
2021/06/01 15:47:47;;;;;;;2.20;2.00;;;;;;;19.82;70.29;97367.38;5043384;28;20289;-68
2021/06/01 15:50:26;;;;;;;4.43;2.17;;;;;;;19.81;70.28;97361.38;5044060;28;20927;-68
2021/06/01 16:13:48;;;;;;;2.10;1.90;;;;;;;19.75;70.22;97330.59;5043795;28;20240;-68
2021/06/01 16:29:35;;;;;;;4.17;2.13;;;;;;;19.87;70.00;97345.44;5025857;28;20316;-68
2021/06/01 17:05:02;;;;;;;2.50;1.93;;;;;;;19.86;70.04;97331.81;5042421;28;20692;-68